This is the latest recevied weather packets stored in our database for station/object DG9LAO-6. If no packets are shown the sender has not sent any weather packets the latest 10 day(s).
| Time | Temp. | Humidity | Pressure | Rain* | Wind** | Luminosity | Snow |
|---|---|---|---|---|---|---|---|
| 1777826949 | 17.78° C | 88% | 1006.6 hPa | 0 mm | - | - | - |
| 1777820952 | 19.44° C | 86% | 1008.2 hPa | 0 mm | - | - | - |
| 1777808350 | 17.78° C | 89% | 1012.3 hPa | 0 mm | - | - | - |
| 1777801750 | 15° C | 91% | 1011.8 hPa | 0 mm | - | - | - |
| 1777799949 | 14.44° C | 92% | 1011.8 hPa | 0 mm | - | - | - |
| 1777799349 | 14.44° C | 92% | 1011.6 hPa | 0 mm | - | - | - |
| 1777796353 | 12.78° C | 92% | 1011.3 hPa | 0.76 mm | - | - | - |
| 1777790951 | 11.11° C | 93% | 1011.1 hPa | 3.56 mm | - | - | - |
| 1777786151 | 10.56° C | 93% | 1011.1 hPa | 0 mm | - | - | - |
| 1777783750 | 10.56° C | 93% | 1010.9 hPa | 0 mm | - | - | - |
| 1777779550 | 10.56° C | 92% | 1010.8 hPa | 0 mm | - | - | - |
| 1777765151 | 11.11° C | 89% | 1012.8 hPa | 0 mm | - | - | - |
| 1777733352 | 21.67° C | 56% | 1015.2 hPa | 0 mm | - | - | - |
| 1777732753 | 22.78° C | 51% | 1016.4 hPa | 0 mm | - | - | - |
| 1777730952 | 22.78° C | 51% | 1015.4 hPa | 0 mm | - | - | - |
| 1777730352 | 23.33° C | 51% | 1015.4 hPa | 0 mm | - | - | - |
| 1777725551 | 23.33° C | 51% | 1017.4 hPa | 0 mm | - | - | - |
| 1777724351 | 23.33° C | 52% | 1018.8 hPa | 0 mm | - | - | - |
| 1777709951 | 20.56° C | 64% | 1017.1 hPa | 0 mm | - | - | - |
| 1777706951 | 18.89° C | 69% | 1017.2 hPa | 0 mm | - | - | - |
| 1777703351 | 15.56° C | 79% | 1017.2 hPa | 0 mm | - | - | - |
| 1777699157 | 11.67° C | 84% | 1019.4 hPa | 0 mm | - | - | - |
| 1777699150 | 11.67° C | 84% | 1017.3 hPa | 0 mm | - | - | - |
| 1777697357 | 10.56° C | 86% | 1019.8 hPa | 0 mm | - | - | - |
| 1777697349 | 10.56° C | 86% | 1017.4 hPa | 0 mm | - | - | - |
* Rain latest hour (hover to see other rain measurements)
** Current wind speed in m/s (hover to see current wind gust speed)